createdAt,value
2023-03-17T00:01:44.534Z,5.60
2023-03-17T00:04:12.411Z,5.50
2023-03-17T00:06:41.303Z,5.50
2023-03-17T00:09:14.655Z,5.50
2023-03-17T00:11:42.607Z,5.50
2023-03-17T00:14:09.457Z,5.50
2023-03-17T00:16:42.879Z,5.50
2023-03-17T00:19:29.918Z,5.50
2023-03-17T00:21:58.928Z,5.50
2023-03-17T00:24:25.966Z,5.50
2023-03-17T00:26:53.230Z,5.50
2023-03-17T00:29:20.371Z,5.50
2023-03-17T00:31:47.136Z,5.50
2023-03-17T00:34:17.292Z,5.50
2023-03-17T00:36:48.163Z,5.60
2023-03-17T00:41:43.494Z,5.60
2023-03-17T00:44:10.302Z,5.60
2023-03-17T00:46:38.788Z,5.60
2023-03-17T00:49:22.081Z,5.50
2023-03-17T00:51:49.928Z,5.50
2023-03-17T00:54:18.171Z,5.50
2023-03-17T00:56:46.063Z,5.50
2023-03-17T00:59:25.310Z,5.60
2023-03-17T01:01:52.393Z,5.60
2023-03-17T01:04:21.452Z,5.50
2023-03-17T01:06:49.501Z,5.50
2023-03-17T01:09:20.275Z,5.50
2023-03-17T01:11:48.508Z,5.40
2023-03-17T01:14:15.726Z,5.50
2023-03-17T01:16:43.035Z,5.50
2023-03-17T01:19:13.041Z,5.50
2023-03-17T01:21:40.624Z,5.60
2023-03-17T01:24:08.272Z,5.50
2023-03-17T01:26:35.375Z,5.50
2023-03-17T01:29:02.236Z,5.60
2023-03-17T01:31:29.470Z,5.70
2023-03-17T01:33:56.274Z,5.60
2023-03-17T01:36:23.039Z,5.60
2023-03-17T01:38:50.857Z,5.60
2023-03-17T01:41:20.957Z,5.50
2023-03-17T01:43:47.787Z,5.50
2023-03-17T01:46:32.591Z,5.50
2023-03-17T01:49:09.293Z,5.50
2023-03-17T01:52:03.704Z,5.40
2023-03-17T01:54:51.045Z,5.50
2023-03-17T01:57:37.049Z,5.40
2023-03-17T02:00:16.215Z,5.40
2023-03-17T02:02:46.296Z,5.50
2023-03-17T02:05:17.838Z,5.50
2023-03-17T02:07:45.483Z,5.50
2023-03-17T02:10:14.110Z,5.50
2023-03-17T02:12:42.809Z,5.40
2023-03-17T02:15:11.599Z,5.50
2023-03-17T02:17:39.188Z,5.40
2023-03-17T02:20:17.081Z,5.40
2023-03-17T02:22:46.549Z,5.30
2023-03-17T02:25:14.939Z,5.30
2023-03-17T02:27:47.832Z,5.40
2023-03-17T02:30:19.037Z,5.50
2023-03-17T02:32:46.024Z,5.50
2023-03-17T02:35:13.935Z,5.60
2023-03-17T02:37:43.653Z,5.60
2023-03-17T02:40:11.407Z,5.60
2023-03-17T02:42:39.328Z,5.60
2023-03-17T02:45:07.839Z,5.60
2023-03-17T02:47:34.899Z,5.70
2023-03-17T02:50:01.730Z,5.60
2023-03-17T02:52:28.671Z,5.60
2023-03-17T02:54:55.594Z,5.60
2023-03-17T02:57:22.360Z,5.50
2023-03-17T02:59:49.190Z,5.50
2023-03-17T03:02:16.765Z,5.40
2023-03-17T03:04:43.983Z,5.40
2023-03-17T03:07:11.458Z,5.30
2023-03-17T03:09:38.177Z,5.30
2023-03-17T03:12:05.580Z,5.30
2023-03-17T03:14:32.441Z,5.20
2023-03-17T03:16:59.532Z,5.10
2023-03-17T03:19:26.273Z,5.20
2023-03-17T03:21:53.032Z,5.20
2023-03-17T03:24:19.756Z,5.30
2023-03-17T03:26:46.472Z,5.30
2023-03-17T03:29:13.207Z,5.40
2023-03-17T03:31:39.928Z,5.50
2023-03-17T03:34:07.223Z,5.50
2023-03-17T03:36:34.063Z,5.50
2023-03-17T03:39:01.159Z,5.50
2023-03-17T03:41:27.863Z,5.50
2023-03-17T03:43:54.596Z,5.50
2023-03-17T03:46:21.422Z,5.50
2023-03-17T03:48:48.337Z,5.50
2023-03-17T03:51:15.082Z,5.50
2023-03-17T03:53:41.785Z,5.50
2023-03-17T03:56:08.527Z,5.30
2023-03-17T03:58:35.643Z,5.40
2023-03-17T04:01:12.343Z,5.50
2023-03-17T04:03:39.467Z,5.40
2023-03-17T04:06:06.721Z,5.50
2023-03-17T04:08:33.545Z,5.40
2023-03-17T04:11:00.443Z,5.50
2023-03-17T04:13:27.129Z,5.50
2023-03-17T04:15:53.866Z,5.50
2023-03-17T04:18:20.639Z,5.40
2023-03-17T04:20:47.394Z,5.50
2023-03-17T04:23:14.087Z,5.40
2023-03-17T04:25:40.789Z,5.30
2023-03-17T04:28:08.954Z,5.30
2023-03-17T04:30:35.724Z,5.30
2023-03-17T04:33:02.543Z,5.10
2023-03-17T04:35:29.815Z,5.10
2023-03-17T04:37:56.509Z,5.00
2023-03-17T04:40:23.240Z,4.90
2023-03-17T04:42:49.935Z,4.90
2023-03-17T04:45:16.783Z,5.00
2023-03-17T04:47:45.912Z,4.90
2023-03-17T04:50:13.934Z,4.80
2023-03-17T04:52:41.078Z,4.70
2023-03-17T04:55:11.940Z,4.70
2023-03-17T04:57:39.065Z,4.70
2023-03-17T05:00:07.240Z,4.60
2023-03-17T05:02:34.525Z,4.50
2023-03-17T05:05:02.037Z,4.50
2023-03-17T05:07:28.746Z,4.50
2023-03-17T05:09:55.560Z,4.50
2023-03-17T05:12:22.432Z,4.50
2023-03-17T05:14:49.124Z,4.50
2023-03-17T05:17:16.209Z,4.50
2023-03-17T05:19:43.068Z,4.50
2023-03-17T05:22:09.822Z,4.50
2023-03-17T05:24:36.596Z,4.50
2023-03-17T05:27:03.381Z,4.60
2023-03-17T05:29:30.171Z,4.60
2023-03-17T05:31:56.897Z,4.70
2023-03-17T05:34:23.641Z,4.70
2023-03-17T05:36:50.420Z,4.70
2023-03-17T05:39:17.443Z,4.70
2023-03-17T05:41:44.197Z,4.80
2023-03-17T05:44:11.098Z,4.80
2023-03-17T05:46:37.814Z,4.90
2023-03-17T05:49:04.734Z,4.90
2023-03-17T05:51:31.711Z,4.90
2023-03-17T05:53:58.504Z,4.90
2023-03-17T05:56:26.785Z,4.90
2023-03-17T05:58:53.602Z,4.90
2023-03-17T06:01:20.966Z,4.90
2023-03-17T06:03:47.753Z,4.90
2023-03-17T06:06:14.489Z,4.90
2023-03-17T06:08:41.226Z,5.00
2023-03-17T06:11:08.173Z,5.00
2023-03-17T06:13:35.167Z,5.00
2023-03-17T06:16:03.101Z,4.90
2023-03-17T06:18:29.922Z,4.80
2023-03-17T06:20:56.629Z,4.80
2023-03-17T06:23:23.751Z,4.80
2023-03-17T06:25:50.817Z,4.70
2023-03-17T06:28:18.344Z,4.80
2023-03-17T06:30:45.091Z,4.90
2023-03-17T06:33:12.202Z,4.90
2023-03-17T06:35:38.988Z,5.00
2023-03-17T06:38:05.726Z,5.00
2023-03-17T06:40:34.000Z,5.00
2023-03-17T06:43:01.213Z,5.00
2023-03-17T06:45:28.417Z,5.10
2023-03-17T06:47:55.387Z,5.10
2023-03-17T06:50:22.147Z,5.20
2023-03-17T06:52:49.483Z,5.20
2023-03-17T06:55:17.403Z,5.30
2023-03-17T06:57:44.180Z,5.30
2023-03-17T07:00:14.053Z,5.40
2023-03-17T07:02:41.282Z,5.50
2023-03-17T07:05:08.676Z,5.50
2023-03-17T07:07:35.635Z,5.60
2023-03-17T07:10:03.796Z,5.60
2023-03-17T07:12:30.548Z,5.70
2023-03-17T07:14:58.062Z,5.80
2023-03-17T07:17:25.332Z,5.90
2023-03-17T07:19:52.399Z,6.00
2023-03-17T07:22:19.230Z,6.10
2023-03-17T07:24:46.965Z,6.20
2023-03-17T07:27:14.350Z,6.20
2023-03-17T07:29:41.459Z,6.20
2023-03-17T07:32:09.572Z,6.30
2023-03-17T07:34:37.314Z,6.30
2023-03-17T07:37:04.353Z,6.40
2023-03-17T07:39:31.231Z,6.50
2023-03-17T07:41:57.911Z,6.60
2023-03-17T07:44:25.922Z,6.70
2023-03-17T07:46:53.035Z,6.80
2023-03-17T07:49:34.036Z,6.80
2023-03-17T07:52:08.594Z,6.90
2023-03-17T07:54:36.417Z,6.90
2023-03-17T07:57:04.290Z,6.90
2023-03-17T07:59:31.513Z,7.00
2023-03-17T08:02:00.126Z,7.00
2023-03-17T08:04:27.625Z,7.20
2023-03-17T08:06:54.581Z,7.30
2023-03-17T08:09:25.035Z,7.40
2023-03-17T08:11:52.083Z,7.50
2023-03-17T08:14:18.945Z,7.60
2023-03-17T08:16:45.840Z,7.70
2023-03-17T08:19:12.656Z,7.80
2023-03-17T08:21:39.385Z,7.80
2023-03-17T08:24:06.575Z,7.80
2023-03-17T08:26:33.647Z,7.80
2023-03-17T08:29:01.190Z,8.00
2023-03-17T08:31:28.512Z,8.00
2023-03-17T08:33:57.110Z,8.10
2023-03-17T08:36:24.636Z,8.20
2023-03-17T08:38:51.480Z,8.40
2023-03-17T08:41:21.742Z,8.50
2023-03-17T08:43:49.042Z,8.60
2023-03-17T08:46:22.801Z,8.70
2023-03-17T08:48:51.533Z,8.80
2023-03-17T08:51:22.082Z,8.90
2023-03-17T08:53:51.557Z,8.90
2023-03-17T08:56:18.303Z,9.00
2023-03-17T08:58:45.849Z,9.00
2023-03-17T09:01:12.967Z,9.00
2023-03-17T09:03:41.152Z,9.10
2023-03-17T09:06:11.161Z,9.20
2023-03-17T09:08:41.175Z,9.20
2023-03-17T09:11:10.336Z,9.10
2023-03-17T09:13:38.976Z,9.20
2023-03-17T09:16:08.756Z,9.20
2023-03-17T09:18:35.991Z,9.20
2023-03-17T09:21:03.613Z,9.20
2023-03-17T09:23:30.818Z,9.20
2023-03-17T09:25:57.923Z,9.40
2023-03-17T09:28:24.804Z,9.40
2023-03-17T09:30:52.794Z,9.50
2023-03-17T09:33:20.908Z,9.50
2023-03-17T09:35:48.087Z,9.60
2023-03-17T09:38:14.839Z,9.80
2023-03-17T09:40:54.353Z,10.00
2023-03-17T09:44:01.795Z,10.00
2023-03-17T09:46:40.683Z,10.10
2023-03-17T09:49:11.835Z,10.20
2023-03-17T09:51:39.383Z,10.40
2023-03-17T09:54:42.657Z,10.40
2023-03-17T09:57:24.815Z,10.50
2023-03-17T10:00:07.546Z,10.70
2023-03-17T10:02:37.522Z,10.80
2023-03-17T10:05:13.242Z,10.80
2023-03-17T10:08:31.253Z,11.00
2023-03-17T10:11:02.711Z,11.10
2023-03-17T10:13:48.659Z,11.10
2023-03-17T10:16:54.640Z,11.10
2023-03-17T10:19:36.046Z,11.10
2023-03-17T10:22:10.387Z,11.30
2023-03-17T10:24:43.074Z,11.20
2023-03-17T10:27:12.373Z,11.40
2023-03-17T10:29:39.083Z,11.50
2023-03-17T10:32:09.159Z,11.50
2023-03-17T10:34:38.187Z,11.60
2023-03-17T10:37:23.879Z,11.70
2023-03-17T10:39:57.152Z,11.70
2023-03-17T10:42:32.925Z,11.70
2023-03-17T10:45:14.221Z,11.90
2023-03-17T10:47:45.890Z,11.90
2023-03-17T10:50:35.948Z,12.00
2023-03-17T10:53:08.863Z,12.00
2023-03-17T10:55:38.331Z,12.10
2023-03-17T10:58:33.940Z,12.20
2023-03-17T11:01:20.122Z,12.30
2023-03-17T11:03:47.692Z,12.50
2023-03-17T11:06:19.085Z,12.60
2023-03-17T11:08:53.727Z,12.70
2023-03-17T11:11:36.149Z,12.80
2023-03-17T11:14:13.336Z,12.90
2023-03-17T11:16:53.892Z,13.00
2023-03-17T11:19:29.845Z,13.00
2023-03-17T11:22:14.106Z,13.10
2023-03-17T11:24:55.380Z,13.10
2023-03-17T11:27:32.279Z,13.10
2023-03-17T11:30:13.443Z,13.20
2023-03-17T11:32:56.426Z,13.30
2023-03-17T11:35:43.502Z,13.40
2023-03-17T11:38:20.533Z,13.30
2023-03-17T11:41:11.409Z,13.30
2023-03-17T11:43:50.169Z,13.50
2023-03-17T11:46:30.852Z,13.50
2023-03-17T11:49:04.820Z,13.60
2023-03-17T11:51:45.272Z,13.60
2023-03-17T11:54:30.610Z,13.70
2023-03-17T11:57:05.629Z,13.90
2023-03-17T11:59:46.414Z,14.10
2023-03-17T12:02:22.398Z,14.30
2023-03-17T12:05:04.943Z,14.40
2023-03-17T12:07:37.439Z,14.60
2023-03-17T12:10:23.222Z,14.80
2023-03-17T12:13:00.353Z,14.90
2023-03-17T12:15:43.534Z,15.00
2023-03-17T12:18:33.004Z,15.20
2023-03-17T12:21:17.459Z,15.30
2023-03-17T12:23:49.401Z,15.40
2023-03-17T12:26:27.477Z,15.40
2023-03-17T12:28:59.951Z,15.50
2023-03-17T12:31:36.136Z,15.60
2023-03-17T12:34:21.259Z,15.70
2023-03-17T12:36:49.252Z,15.80
2023-03-17T12:39:30.654Z,15.80
2023-03-17T12:42:27.106Z,15.70
2023-03-17T12:45:22.322Z,15.80
2023-03-17T12:48:07.069Z,15.80
2023-03-17T12:50:43.489Z,15.80
2023-03-17T12:53:19.205Z,16.00
2023-03-17T12:55:49.103Z,16.00
2023-03-17T12:58:37.429Z,16.10
2023-03-17T13:01:08.797Z,16.10
2023-03-17T13:03:45.324Z,16.00
2023-03-17T13:06:19.031Z,16.00
2023-03-17T13:08:46.009Z,16.00
2023-03-17T13:11:29.500Z,16.00
2023-03-17T13:14:15.302Z,16.10
2023-03-17T13:16:47.369Z,16.10
2023-03-17T13:19:23.060Z,16.10
2023-03-17T13:22:05.873Z,16.10
2023-03-17T13:24:48.668Z,16.20
2023-03-17T13:27:35.646Z,16.40
2023-03-17T13:30:28.968Z,16.40
2023-03-17T13:33:11.404Z,16.30
2023-03-17T13:36:00.437Z,16.40
2023-03-17T13:38:40.858Z,16.40
2023-03-17T13:41:22.717Z,16.40
2023-03-17T13:44:06.616Z,16.40
2023-03-17T13:46:36.659Z,16.20
2023-03-17T13:49:26.755Z,16.10
2023-03-17T13:52:13.707Z,16.10
2023-03-17T13:54:59.663Z,16.10
2023-03-17T13:57:39.013Z,16.00
2023-03-17T14:00:21.510Z,16.00
2023-03-17T14:02:50.017Z,16.00
2023-03-17T14:05:29.903Z,16.00
2023-03-17T14:08:03.704Z,16.00
2023-03-17T14:10:33.195Z,16.10
2023-03-17T14:13:03.063Z,16.10
2023-03-17T14:15:48.592Z,16.10
2023-03-17T14:18:18.061Z,15.80
2023-03-17T14:20:55.608Z,15.70
2023-03-17T14:23:23.857Z,15.70
2023-03-17T14:25:51.212Z,15.80
2023-03-17T14:28:25.450Z,15.80
2023-03-17T14:30:59.622Z,15.90
2023-03-17T14:33:31.113Z,15.80
2023-03-17T14:36:01.155Z,15.80
2023-03-17T14:38:34.001Z,15.80
2023-03-17T14:41:25.249Z,15.80
2023-03-17T14:43:54.375Z,15.70
2023-03-17T14:46:34.568Z,15.60
2023-03-17T14:49:04.411Z,15.60
2023-03-17T14:51:39.033Z,15.60
2023-03-17T14:54:14.652Z,15.60
2023-03-17T14:56:47.579Z,15.50
2023-03-17T14:59:35.860Z,15.50
2023-03-17T15:02:32.133Z,15.60
2023-03-17T15:05:11.191Z,15.50
2023-03-17T15:07:41.282Z,15.50
2023-03-17T15:10:20.032Z,15.50
2023-03-17T15:12:48.288Z,15.40
2023-03-17T15:15:29.454Z,15.40
2023-03-17T15:17:58.840Z,15.40
2023-03-17T15:20:25.844Z,15.40
2023-03-17T15:22:56.976Z,15.30
2023-03-17T15:25:55.733Z,15.20
2023-03-17T15:28:31.075Z,15.20
2023-03-17T15:31:10.849Z,15.10
2023-03-17T15:33:40.559Z,15.00
2023-03-17T15:36:12.799Z,14.90
2023-03-17T15:38:43.347Z,14.80
2023-03-17T15:41:10.015Z,14.80
2023-03-17T15:43:36.800Z,14.80
2023-03-17T15:46:07.640Z,14.80
2023-03-17T15:48:38.887Z,14.80
2023-03-17T15:51:06.094Z,14.80
2023-03-17T15:53:32.914Z,14.80
2023-03-17T15:55:59.778Z,14.80
2023-03-17T15:58:26.793Z,14.60
2023-03-17T16:00:57.396Z,14.60
2023-03-17T16:03:33.363Z,14.60
2023-03-17T16:06:01.362Z,14.50
2023-03-17T16:08:28.837Z,14.40
2023-03-17T16:10:55.570Z,14.30
2023-03-17T16:13:22.403Z,14.20
2023-03-17T16:15:55.539Z,14.20
2023-03-17T16:18:29.679Z,14.10
2023-03-17T16:20:56.783Z,14.00
2023-03-17T16:23:27.052Z,14.00
2023-03-17T16:25:59.342Z,13.90
2023-03-17T16:28:32.498Z,13.90
2023-03-17T16:31:01.222Z,13.90
2023-03-17T16:33:32.313Z,13.80
2023-03-17T16:36:00.859Z,13.70
2023-03-17T16:38:30.707Z,13.70
2023-03-17T16:41:09.353Z,13.50
2023-03-17T16:43:37.897Z,13.50
2023-03-17T16:46:06.774Z,13.40
2023-03-17T16:48:33.867Z,13.30
2023-03-17T16:51:00.568Z,13.30
2023-03-17T16:53:27.314Z,13.20
2023-03-17T16:55:54.780Z,13.20
2023-03-17T16:58:23.454Z,13.10
2023-03-17T17:00:52.296Z,13.10
2023-03-17T17:03:19.394Z,13.10
2023-03-17T17:05:46.559Z,13.10
2023-03-17T17:08:13.326Z,13.00
2023-03-17T17:10:40.779Z,13.00
2023-03-17T17:13:09.375Z,12.90
2023-03-17T17:15:36.758Z,12.70
2023-03-17T17:18:07.621Z,12.70
2023-03-17T17:20:38.491Z,12.60
2023-03-17T17:23:09.948Z,12.60
2023-03-17T17:25:36.771Z,12.50
2023-03-17T17:28:03.667Z,12.50
2023-03-17T17:30:31.245Z,12.50
2023-03-17T17:32:59.784Z,12.50
2023-03-17T17:35:31.925Z,12.50
2023-03-17T17:37:59.835Z,12.50
2023-03-17T17:40:26.991Z,12.50
2023-03-17T17:42:54.751Z,12.50
2023-03-17T17:45:22.502Z,12.50
2023-03-17T17:47:49.819Z,12.50
2023-03-17T17:50:24.381Z,12.50
2023-03-17T17:52:51.233Z,12.50
2023-03-17T17:55:19.082Z,12.70
2023-03-17T17:57:45.970Z,12.50
2023-03-17T18:00:17.929Z,12.50
2023-03-17T18:02:45.098Z,12.50
2023-03-17T18:05:12.821Z,12.50
2023-03-17T18:07:40.299Z,12.50
2023-03-17T18:10:07.765Z,12.30
2023-03-17T18:12:34.562Z,12.20
2023-03-17T18:15:01.299Z,12.20
2023-03-17T18:17:28.813Z,12.30
2023-03-17T18:19:56.544Z,12.30
2023-03-17T18:22:23.324Z,12.20
2023-03-17T18:24:50.327Z,12.20
2023-03-17T18:27:17.147Z,12.20
2023-03-17T18:29:44.843Z,12.30
2023-03-17T18:32:12.341Z,12.20
2023-03-17T18:34:43.677Z,12.20
2023-03-17T18:37:13.116Z,12.10
2023-03-17T18:39:41.131Z,12.10
2023-03-17T18:42:09.188Z,12.10
2023-03-17T18:44:36.327Z,12.10
2023-03-17T18:47:03.592Z,12.10
2023-03-17T18:49:30.633Z,12.10
2023-03-17T18:51:59.382Z,12.20
2023-03-17T18:54:27.634Z,12.10
2023-03-17T18:56:55.665Z,12.10
2023-03-17T18:59:22.535Z,12.00
2023-03-17T19:01:49.317Z,12.00
2023-03-17T19:04:16.146Z,12.00
2023-03-17T19:06:43.034Z,12.10
2023-03-17T19:09:10.733Z,12.10
2023-03-17T19:11:41.270Z,12.20
2023-03-17T19:14:08.597Z,12.10
2023-03-17T19:16:36.113Z,12.10
2023-03-17T19:19:02.967Z,12.10
2023-03-17T19:21:30.962Z,12.10
2023-03-17T19:23:59.965Z,12.10
2023-03-17T19:26:27.115Z,12.10
2023-03-17T19:28:56.227Z,12.00
2023-03-17T19:31:24.635Z,11.90
2023-03-17T19:33:51.929Z,11.90
2023-03-17T19:36:19.190Z,11.80
2023-03-17T19:38:46.300Z,11.70
2023-03-17T19:41:13.560Z,11.70
2023-03-17T19:43:41.722Z,11.60
2023-03-17T19:46:11.117Z,11.50
2023-03-17T19:48:38.245Z,11.50
2023-03-17T19:51:05.366Z,11.50
2023-03-17T19:53:32.279Z,11.50
2023-03-17T19:55:59.271Z,11.50
2023-03-17T19:58:26.952Z,11.50
2023-03-17T20:00:53.690Z,11.50
2023-03-17T20:03:20.558Z,11.50
2023-03-17T20:05:47.399Z,11.50
2023-03-17T20:08:14.655Z,11.50
2023-03-17T20:10:41.377Z,11.40
2023-03-17T20:13:08.295Z,11.40
2023-03-17T20:15:35.464Z,11.40
2023-03-17T20:18:02.622Z,11.40
2023-03-17T20:20:29.855Z,11.40
2023-03-17T20:22:57.237Z,11.50
2023-03-17T20:25:23.985Z,11.40
2023-03-17T20:27:51.027Z,11.40
2023-03-17T20:30:17.899Z,11.40
2023-03-17T20:32:44.741Z,11.40
2023-03-17T20:35:11.813Z,11.30
2023-03-17T20:37:39.478Z,11.30
2023-03-17T20:40:08.785Z,11.20
2023-03-17T20:42:36.000Z,11.20
2023-03-17T20:45:03.556Z,11.10
2023-03-17T20:47:31.000Z,11.10
2023-03-17T20:49:58.934Z,11.10
2023-03-17T20:52:30.261Z,11.10
2023-03-17T20:54:59.354Z,11.10
2023-03-17T20:57:26.320Z,11.10
2023-03-17T20:59:53.101Z,11.00
2023-03-17T21:02:19.829Z,10.90
2023-03-17T21:04:48.728Z,10.90
2023-03-17T21:07:18.118Z,11.00
2023-03-17T21:09:45.552Z,11.00
2023-03-17T21:12:18.834Z,11.00
2023-03-17T21:14:48.158Z,11.00
2023-03-17T21:17:16.300Z,10.90
2023-03-17T21:19:44.066Z,11.00
2023-03-17T21:22:10.903Z,10.90
2023-03-17T21:24:38.315Z,10.90
2023-03-17T21:27:12.023Z,10.90
2023-03-17T21:29:39.788Z,11.00
2023-03-17T21:32:08.315Z,11.00
2023-03-17T21:34:36.868Z,11.00
2023-03-17T21:37:04.361Z,11.10
2023-03-17T21:39:32.742Z,11.00
2023-03-17T21:42:01.241Z,11.00
2023-03-17T21:44:28.644Z,10.90
2023-03-17T21:46:56.568Z,10.90
2023-03-17T21:49:24.719Z,10.90
2023-03-17T21:51:51.730Z,10.90
2023-03-17T21:54:19.253Z,10.90
2023-03-17T21:56:46.281Z,11.00
2023-03-17T21:59:15.558Z,11.00
2023-03-17T22:01:43.728Z,11.00
2023-03-17T22:04:11.515Z,11.00
2023-03-17T22:06:38.258Z,11.00
2023-03-17T22:09:05.821Z,10.90
2023-03-17T22:11:32.645Z,10.90
2023-03-17T22:13:59.614Z,10.90
2023-03-17T22:16:26.421Z,10.90
2023-03-17T22:18:53.555Z,10.90
2023-03-17T22:21:21.440Z,10.90
2023-03-17T22:23:48.304Z,10.90
2023-03-17T22:26:20.123Z,10.90
2023-03-17T22:28:48.835Z,10.90
2023-03-17T22:31:21.736Z,10.90
2023-03-17T22:33:50.038Z,10.90
2023-03-17T22:36:17.803Z,10.90
2023-03-17T22:38:45.966Z,10.80
2023-03-17T22:41:18.437Z,10.80
2023-03-17T22:43:46.772Z,10.70
2023-03-17T22:46:14.337Z,10.80
2023-03-17T22:48:41.175Z,10.70
2023-03-17T22:51:11.186Z,10.70
2023-03-17T22:53:38.825Z,10.70
2023-03-17T22:56:06.633Z,10.70
2023-03-17T22:58:33.693Z,10.70
2023-03-17T23:01:01.125Z,10.70
2023-03-17T23:03:28.790Z,10.70
2023-03-17T23:05:58.500Z,10.80
2023-03-17T23:08:26.750Z,10.70
2023-03-17T23:10:53.964Z,10.70
2023-03-17T23:13:21.027Z,10.70
2023-03-17T23:15:48.920Z,10.60
2023-03-17T23:18:15.871Z,10.60
2023-03-17T23:20:43.383Z,10.50
2023-03-17T23:23:11.609Z,10.50
2023-03-17T23:25:39.156Z,10.40
2023-03-17T23:28:07.589Z,10.30
2023-03-17T23:30:35.766Z,10.30
2023-03-17T23:33:04.616Z,10.20
2023-03-17T23:35:32.390Z,10.20
2023-03-17T23:37:59.712Z,10.20
2023-03-17T23:40:26.625Z,10.20
2023-03-17T23:42:55.024Z,10.20
2023-03-17T23:45:23.127Z,10.20
2023-03-17T23:47:51.599Z,10.20
2023-03-17T23:50:19.381Z,10.20
2023-03-17T23:52:47.144Z,10.10
2023-03-17T23:55:14.451Z,10.10
2023-03-17T23:57:41.560Z,10.20
